sensor_id;sensor_type;location;lat;lon;timestamp;P1;durP1;ratioP1;P2;durP2;ratioP2
59042;SDS011;44826;51.596;5.624;2022-12-18T00:02:09;37.43;;;13.80;;
59042;SDS011;44826;51.596;5.624;2022-12-18T00:04:36;32.43;;;13.73;;
59042;SDS011;44826;51.596;5.624;2022-12-18T00:07:01;32.47;;;13.27;;
59042;SDS011;44826;51.596;5.624;2022-12-18T00:09:26;35.50;;;13.37;;
59042;SDS011;44826;51.596;5.624;2022-12-18T00:11:52;33.67;;;13.00;;
59042;SDS011;44826;51.596;5.624;2022-12-18T00:14:17;36.00;;;13.80;;
59042;SDS011;44826;51.596;5.624;2022-12-18T00:16:43;37.47;;;13.00;;
59042;SDS011;44826;51.596;5.624;2022-12-18T00:19:09;31.60;;;12.23;;
59042;SDS011;44826;51.596;5.624;2022-12-18T00:21:35;31.87;;;11.87;;
59042;SDS011;44826;51.596;5.624;2022-12-18T00:24:00;32.60;;;12.93;;
59042;SDS011;44826;51.596;5.624;2022-12-18T00:26:29;33.80;;;12.50;;
59042;SDS011;44826;51.596;5.624;2022-12-18T00:29:00;37.17;;;13.13;;
59042;SDS011;44826;51.596;5.624;2022-12-18T00:31:27;38.25;;;13.35;;
59042;SDS011;44826;51.596;5.624;2022-12-18T00:33:55;41.23;;;15.77;;
59042;SDS011;44826;51.596;5.624;2022-12-18T00:36:22;38.57;;;15.60;;
59042;SDS011;44826;51.596;5.624;2022-12-18T00:38:50;41.77;;;14.13;;
59042;SDS011;44826;51.596;5.624;2022-12-18T00:41:16;38.07;;;14.30;;
59042;SDS011;44826;51.596;5.624;2022-12-18T00:44:02;38.73;;;15.30;;
59042;SDS011;44826;51.596;5.624;2022-12-18T00:46:29;36.40;;;12.40;;
59042;SDS011;44826;51.596;5.624;2022-12-18T00:48:54;37.17;;;14.27;;
59042;SDS011;44826;51.596;5.624;2022-12-18T00:51:20;36.60;;;14.23;;
59042;SDS011;44826;51.596;5.624;2022-12-18T00:53:45;38.30;;;13.57;;
59042;SDS011;44826;51.596;5.624;2022-12-18T00:56:10;32.73;;;11.53;;
59042;SDS011;44826;51.596;5.624;2022-12-18T00:58:36;36.90;;;14.03;;
59042;SDS011;44826;51.596;5.624;2022-12-18T01:01:02;35.33;;;14.03;;
59042;SDS011;44826;51.596;5.624;2022-12-18T01:03:29;37.60;;;13.67;;
59042;SDS011;44826;51.596;5.624;2022-12-18T01:05:54;32.47;;;12.77;;
59042;SDS011;44826;51.596;5.624;2022-12-18T01:08:19;35.07;;;13.07;;
59042;SDS011;44826;51.596;5.624;2022-12-18T01:10:44;33.73;;;14.33;;
59042;SDS011;44826;51.596;5.624;2022-12-18T01:13:10;34.90;;;13.13;;
59042;SDS011;44826;51.596;5.624;2022-12-18T01:15:35;39.70;;;15.50;;
59042;SDS011;44826;51.596;5.624;2022-12-18T01:18:00;34.73;;;13.73;;
59042;SDS011;44826;51.596;5.624;2022-12-18T01:20:26;37.80;;;13.20;;
59042;SDS011;44826;51.596;5.624;2022-12-18T01:22:51;32.30;;;11.73;;
59042;SDS011;44826;51.596;5.624;2022-12-18T01:25:16;32.83;;;12.53;;
59042;SDS011;44826;51.596;5.624;2022-12-18T01:27:41;34.70;;;14.40;;
59042;SDS011;44826;51.596;5.624;2022-12-18T01:30:07;29.83;;;11.77;;
59042;SDS011;44826;51.596;5.624;2022-12-18T01:32:32;33.30;;;14.20;;
59042;SDS011;44826;51.596;5.624;2022-12-18T01:34:58;32.33;;;13.43;;
59042;SDS011;44826;51.596;5.624;2022-12-18T01:37:23;29.10;;;10.90;;
59042;SDS011;44826;51.596;5.624;2022-12-18T01:39:49;33.87;;;12.77;;
59042;SDS011;44826;51.596;5.624;2022-12-18T01:42:14;33.77;;;12.53;;
59042;SDS011;44826;51.596;5.624;2022-12-18T01:49:57;37.73;;;13.03;;
59042;SDS011;44826;51.596;5.624;2022-12-18T01:52:29;26.67;;;10.23;;
59042;SDS011;44826;51.596;5.624;2022-12-18T01:54:57;37.63;;;14.32;;
59042;SDS011;44826;51.596;5.624;2022-12-18T01:57:24;36.80;;;12.60;;
59042;SDS011;44826;51.596;5.624;2022-12-18T01:59:51;35.07;;;13.53;;
59042;SDS011;44826;51.596;5.624;2022-12-18T02:02:18;32.73;;;12.60;;
59042;SDS011;44826;51.596;5.624;2022-12-18T02:04:45;34.03;;;13.47;;
59042;SDS011;44826;51.596;5.624;2022-12-18T02:09:46;31.47;;;12.93;;
59042;SDS011;44826;51.596;5.624;2022-12-18T02:12:19;35.70;;;14.43;;
59042;SDS011;44826;51.596;5.624;2022-12-18T02:14:53;32.28;;;13.10;;
59042;SDS011;44826;51.596;5.624;2022-12-18T02:17:30;38.93;;;14.60;;
59042;SDS011;44826;51.596;5.624;2022-12-18T02:20:07;34.20;;;13.03;;
59042;SDS011;44826;51.596;5.624;2022-12-18T02:25:40;24.13;;;9.23;;
59042;SDS011;44826;51.596;5.624;2022-12-18T02:28:25;33.90;;;11.83;;
59042;SDS011;44826;51.596;5.624;2022-12-18T02:30:55;26.25;;;11.20;;
59042;SDS011;44826;51.596;5.624;2022-12-18T02:33:24;28.33;;;10.53;;
59042;SDS011;44826;51.596;5.624;2022-12-18T02:35:52;33.67;;;12.77;;
59042;SDS011;44826;51.596;5.624;2022-12-18T02:38:20;32.33;;;12.63;;
59042;SDS011;44826;51.596;5.624;2022-12-18T02:40:46;32.80;;;12.67;;
59042;SDS011;44826;51.596;5.624;2022-12-18T02:43:13;35.10;;;13.77;;
59042;SDS011;44826;51.596;5.624;2022-12-18T02:45:58;29.47;;;12.70;;
59042;SDS011;44826;51.596;5.624;2022-12-18T02:48:32;29.30;;;12.20;;
59042;SDS011;44826;51.596;5.624;2022-12-18T02:51:03;30.67;;;11.80;;
59042;SDS011;44826;51.596;5.624;2022-12-18T02:54:03;34.03;;;13.10;;
59042;SDS011;44826;51.596;5.624;2022-12-18T02:56:46;31.15;;;12.20;;
59042;SDS011;44826;51.596;5.624;2022-12-18T02:59:18;25.25;;;11.13;;
59042;SDS011;44826;51.596;5.624;2022-12-18T03:06:50;31.00;;;12.80;;
59042;SDS011;44826;51.596;5.624;2022-12-18T03:09:21;27.20;;;11.20;;
59042;SDS011;44826;51.596;5.624;2022-12-18T03:11:54;31.60;;;12.37;;
59042;SDS011;44826;51.596;5.624;2022-12-18T03:14:42;23.90;;;10.37;;
59042;SDS011;44826;51.596;5.624;2022-12-18T03:17:10;23.00;;;10.03;;
59042;SDS011;44826;51.596;5.624;2022-12-18T03:19:40;24.67;;;10.60;;
59042;SDS011;44826;51.596;5.624;2022-12-18T03:22:08;22.47;;;10.27;;
59042;SDS011;44826;51.596;5.624;2022-12-18T03:24:35;26.77;;;10.93;;
59042;SDS011;44826;51.596;5.624;2022-12-18T03:27:05;25.73;;;10.67;;
59042;SDS011;44826;51.596;5.624;2022-12-18T03:29:35;26.13;;;10.50;;
59042;SDS011;44826;51.596;5.624;2022-12-18T03:32:06;23.37;;;10.03;;
59042;SDS011;44826;51.596;5.624;2022-12-18T03:34:36;23.90;;;11.10;;
59042;SDS011;44826;51.596;5.624;2022-12-18T03:37:03;28.37;;;11.90;;
59042;SDS011;44826;51.596;5.624;2022-12-18T03:39:30;26.63;;;10.80;;
59042;SDS011;44826;51.596;5.624;2022-12-18T03:42:01;26.37;;;11.13;;
59042;SDS011;44826;51.596;5.624;2022-12-18T03:44:38;25.27;;;10.67;;
59042;SDS011;44826;51.596;5.624;2022-12-18T03:47:07;27.17;;;11.33;;
59042;SDS011;44826;51.596;5.624;2022-12-18T03:49:57;25.93;;;10.63;;
59042;SDS011;44826;51.596;5.624;2022-12-18T03:52:41;25.10;;;10.37;;
59042;SDS011;44826;51.596;5.624;2022-12-18T03:55:11;23.00;;;9.90;;
59042;SDS011;44826;51.596;5.624;2022-12-18T03:57:37;25.33;;;11.27;;
59042;SDS011;44826;51.596;5.624;2022-12-18T04:00:08;25.70;;;10.70;;
59042;SDS011;44826;51.596;5.624;2022-12-18T04:02:37;27.13;;;11.30;;
59042;SDS011;44826;51.596;5.624;2022-12-18T04:05:05;25.53;;;11.17;;
59042;SDS011;44826;51.596;5.624;2022-12-18T04:07:33;27.13;;;10.53;;
59042;SDS011;44826;51.596;5.624;2022-12-18T04:10:00;22.20;;;9.63;;
59042;SDS011;44826;51.596;5.624;2022-12-18T04:12:28;24.53;;;10.10;;
59042;SDS011;44826;51.596;5.624;2022-12-18T04:14:54;24.20;;;9.90;;
59042;SDS011;44826;51.596;5.624;2022-12-18T04:17:20;21.33;;;9.70;;
59042;SDS011;44826;51.596;5.624;2022-12-18T04:19:46;19.33;;;8.30;;
59042;SDS011;44826;51.596;5.624;2022-12-18T04:22:11;20.97;;;8.77;;
59042;SDS011;44826;51.596;5.624;2022-12-18T04:24:37;20.20;;;9.30;;
59042;SDS011;44826;51.596;5.624;2022-12-18T04:27:02;20.37;;;9.77;;
59042;SDS011;44826;51.596;5.624;2022-12-18T04:29:28;20.03;;;9.17;;
59042;SDS011;44826;51.596;5.624;2022-12-18T04:31:54;22.93;;;9.60;;
59042;SDS011;44826;51.596;5.624;2022-12-18T04:34:19;23.03;;;10.00;;
59042;SDS011;44826;51.596;5.624;2022-12-18T04:36:45;21.77;;;9.60;;
59042;SDS011;44826;51.596;5.624;2022-12-18T04:39:10;23.73;;;10.13;;
59042;SDS011;44826;51.596;5.624;2022-12-18T04:41:35;21.10;;;8.97;;
59042;SDS011;44826;51.596;5.624;2022-12-18T04:44:01;20.10;;;8.90;;
59042;SDS011;44826;51.596;5.624;2022-12-18T04:46:26;20.43;;;8.10;;
59042;SDS011;44826;51.596;5.624;2022-12-18T04:48:51;19.93;;;8.13;;
59042;SDS011;44826;51.596;5.624;2022-12-18T04:51:17;23.50;;;9.63;;
59042;SDS011;44826;51.596;5.624;2022-12-18T04:53:42;18.60;;;8.13;;
59042;SDS011;44826;51.596;5.624;2022-12-18T04:56:11;18.83;;;8.10;;
59042;SDS011;44826;51.596;5.624;2022-12-18T04:58:39;20.42;;;8.48;;
59042;SDS011;44826;51.596;5.624;2022-12-18T05:01:05;17.13;;;8.00;;
59042;SDS011;44826;51.596;5.624;2022-12-18T05:03:32;20.37;;;8.73;;
59042;SDS011;44826;51.596;5.624;2022-12-18T05:05:57;20.63;;;9.00;;
59042;SDS011;44826;51.596;5.624;2022-12-18T05:08:23;19.73;;;9.23;;
59042;SDS011;44826;51.596;5.624;2022-12-18T05:10:48;17.67;;;8.20;;
59042;SDS011;44826;51.596;5.624;2022-12-18T05:13:13;18.33;;;7.97;;
59042;SDS011;44826;51.596;5.624;2022-12-18T05:15:39;19.00;;;9.10;;
59042;SDS011;44826;51.596;5.624;2022-12-18T05:18:04;18.43;;;8.90;;
59042;SDS011;44826;51.596;5.624;2022-12-18T05:20:30;17.93;;;7.20;;
59042;SDS011;44826;51.596;5.624;2022-12-18T05:22:56;20.30;;;8.97;;
59042;SDS011;44826;51.596;5.624;2022-12-18T05:25:21;17.43;;;7.83;;
59042;SDS011;44826;51.596;5.624;2022-12-18T05:27:47;16.03;;;7.50;;
59042;SDS011;44826;51.596;5.624;2022-12-18T05:30:13;18.57;;;8.37;;
59042;SDS011;44826;51.596;5.624;2022-12-18T05:32:39;20.70;;;8.87;;
59042;SDS011;44826;51.596;5.624;2022-12-18T05:35:04;21.20;;;8.30;;
59042;SDS011;44826;51.596;5.624;2022-12-18T05:37:31;19.50;;;8.13;;
59042;SDS011;44826;51.596;5.624;2022-12-18T05:39:56;17.03;;;7.57;;
59042;SDS011;44826;51.596;5.624;2022-12-18T05:42:21;21.70;;;9.63;;
59042;SDS011;44826;51.596;5.624;2022-12-18T05:44:47;18.07;;;8.40;;
59042;SDS011;44826;51.596;5.624;2022-12-18T05:47:12;18.63;;;7.77;;
59042;SDS011;44826;51.596;5.624;2022-12-18T05:49:38;19.37;;;8.30;;
59042;SDS011;44826;51.596;5.624;2022-12-18T05:52:03;17.30;;;8.03;;
59042;SDS011;44826;51.596;5.624;2022-12-18T05:54:29;19.97;;;9.17;;
59042;SDS011;44826;51.596;5.624;2022-12-18T05:56:54;15.20;;;7.33;;
59042;SDS011;44826;51.596;5.624;2022-12-18T05:59:19;16.07;;;7.90;;
59042;SDS011;44826;51.596;5.624;2022-12-18T06:01:45;16.43;;;8.50;;
59042;SDS011;44826;51.596;5.624;2022-12-18T06:04:11;18.97;;;8.87;;
59042;SDS011;44826;51.596;5.624;2022-12-18T06:06:36;17.87;;;7.80;;
59042;SDS011;44826;51.596;5.624;2022-12-18T06:09:01;21.90;;;9.70;;
59042;SDS011;44826;51.596;5.624;2022-12-18T06:11:33;17.52;;;8.18;;
59042;SDS011;44826;51.596;5.624;2022-12-18T06:13:58;15.07;;;7.23;;
59042;SDS011;44826;51.596;5.624;2022-12-18T06:16:24;18.27;;;7.87;;
59042;SDS011;44826;51.596;5.624;2022-12-18T06:18:49;18.50;;;8.50;;
59042;SDS011;44826;51.596;5.624;2022-12-18T06:21:14;17.83;;;8.00;;
59042;SDS011;44826;51.596;5.624;2022-12-18T06:23:40;15.70;;;7.20;;
59042;SDS011;44826;51.596;5.624;2022-12-18T06:26:06;16.07;;;7.33;;
59042;SDS011;44826;51.596;5.624;2022-12-18T06:28:32;19.00;;;7.80;;
59042;SDS011;44826;51.596;5.624;2022-12-18T06:30:58;19.53;;;8.87;;
59042;SDS011;44826;51.596;5.624;2022-12-18T06:33:25;19.07;;;8.47;;
59042;SDS011;44826;51.596;5.624;2022-12-18T06:35:52;17.23;;;7.83;;
59042;SDS011;44826;51.596;5.624;2022-12-18T06:38:18;19.13;;;9.27;;
59042;SDS011;44826;51.596;5.624;2022-12-18T06:40:43;15.73;;;7.30;;
59042;SDS011;44826;51.596;5.624;2022-12-18T06:43:08;19.67;;;8.47;;
59042;SDS011;44826;51.596;5.624;2022-12-18T06:45:34;18.17;;;8.47;;
59042;SDS011;44826;51.596;5.624;2022-12-18T06:47:59;20.30;;;8.67;;
59042;SDS011;44826;51.596;5.624;2022-12-18T06:50:24;16.33;;;7.07;;
59042;SDS011;44826;51.596;5.624;2022-12-18T06:52:50;18.77;;;8.63;;
59042;SDS011;44826;51.596;5.624;2022-12-18T06:55:15;16.63;;;7.67;;
59042;SDS011;44826;51.596;5.624;2022-12-18T06:57:40;19.57;;;8.27;;
59042;SDS011;44826;51.596;5.624;2022-12-18T07:00:06;16.83;;;7.57;;
59042;SDS011;44826;51.596;5.624;2022-12-18T07:02:32;18.57;;;8.93;;
59042;SDS011;44826;51.596;5.624;2022-12-18T07:04:57;19.13;;;8.23;;
59042;SDS011;44826;51.596;5.624;2022-12-18T07:07:23;18.80;;;8.00;;
59042;SDS011;44826;51.596;5.624;2022-12-18T07:09:49;22.50;;;8.73;;
59042;SDS011;44826;51.596;5.624;2022-12-18T07:12:15;22.57;;;9.03;;
59042;SDS011;44826;51.596;5.624;2022-12-18T07:14:40;18.07;;;7.60;;
59042;SDS011;44826;51.596;5.624;2022-12-18T07:17:05;19.47;;;8.73;;
59042;SDS011;44826;51.596;5.624;2022-12-18T07:19:31;18.63;;;8.00;;
59042;SDS011;44826;51.596;5.624;2022-12-18T07:21:56;17.10;;;8.23;;
59042;SDS011;44826;51.596;5.624;2022-12-18T07:24:21;21.33;;;8.60;;
59042;SDS011;44826;51.596;5.624;2022-12-18T07:26:47;19.90;;;8.27;;
59042;SDS011;44826;51.596;5.624;2022-12-18T07:29:12;17.53;;;8.57;;
59042;SDS011;44826;51.596;5.624;2022-12-18T07:31:38;16.57;;;7.70;;
59042;SDS011;44826;51.596;5.624;2022-12-18T07:34:03;16.93;;;7.43;;
59042;SDS011;44826;51.596;5.624;2022-12-18T07:36:28;17.13;;;8.20;;
59042;SDS011;44826;51.596;5.624;2022-12-18T07:38:54;25.00;;;9.60;;
59042;SDS011;44826;51.596;5.624;2022-12-18T07:41:20;15.93;;;7.73;;
59042;SDS011;44826;51.596;5.624;2022-12-18T07:43:46;19.30;;;8.77;;
59042;SDS011;44826;51.596;5.624;2022-12-18T07:46:11;15.87;;;7.10;;
59042;SDS011;44826;51.596;5.624;2022-12-18T07:48:39;18.37;;;8.47;;
59042;SDS011;44826;51.596;5.624;2022-12-18T07:51:05;18.07;;;8.43;;
59042;SDS011;44826;51.596;5.624;2022-12-18T07:53:32;21.40;;;9.33;;
59042;SDS011;44826;51.596;5.624;2022-12-18T07:56:00;18.90;;;8.63;;
59042;SDS011;44826;51.596;5.624;2022-12-18T07:58:36;19.37;;;8.03;;
59042;SDS011;44826;51.596;5.624;2022-12-18T08:01:03;19.23;;;9.47;;
59042;SDS011;44826;51.596;5.624;2022-12-18T08:03:32;19.43;;;8.90;;
59042;SDS011;44826;51.596;5.624;2022-12-18T08:06:02;21.47;;;9.23;;
59042;SDS011;44826;51.596;5.624;2022-12-18T08:08:29;17.80;;;7.60;;
59042;SDS011;44826;51.596;5.624;2022-12-18T08:10:55;20.53;;;9.90;;
59042;SDS011;44826;51.596;5.624;2022-12-18T08:13:21;20.70;;;9.13;;
59042;SDS011;44826;51.596;5.624;2022-12-18T08:15:54;18.80;;;8.10;;
59042;SDS011;44826;51.596;5.624;2022-12-18T08:18:27;17.67;;;7.33;;
59042;SDS011;44826;51.596;5.624;2022-12-18T08:20:53;20.07;;;9.27;;
59042;SDS011;44826;51.596;5.624;2022-12-18T08:23:19;21.13;;;9.50;;
59042;SDS011;44826;51.596;5.624;2022-12-18T08:25:44;17.47;;;7.80;;
59042;SDS011;44826;51.596;5.624;2022-12-18T08:28:09;18.43;;;8.20;;
59042;SDS011;44826;51.596;5.624;2022-12-18T08:30:35;17.00;;;8.57;;
59042;SDS011;44826;51.596;5.624;2022-12-18T08:33:01;20.13;;;9.07;;
59042;SDS011;44826;51.596;5.624;2022-12-18T08:35:26;20.90;;;9.13;;
59042;SDS011;44826;51.596;5.624;2022-12-18T08:37:51;17.30;;;7.77;;
59042;SDS011;44826;51.596;5.624;2022-12-18T08:40:17;18.57;;;8.20;;
59042;SDS011;44826;51.596;5.624;2022-12-18T08:42:43;17.10;;;8.00;;
59042;SDS011;44826;51.596;5.624;2022-12-18T08:45:26;20.37;;;8.90;;
59042;SDS011;44826;51.596;5.624;2022-12-18T08:47:52;16.40;;;7.53;;
59042;SDS011;44826;51.596;5.624;2022-12-18T08:50:17;21.13;;;9.27;;
59042;SDS011;44826;51.596;5.624;2022-12-18T08:52:43;18.73;;;8.77;;
59042;SDS011;44826;51.596;5.624;2022-12-18T08:55:08;21.43;;;9.47;;
59042;SDS011;44826;51.596;5.624;2022-12-18T08:57:34;20.67;;;9.37;;
59042;SDS011;44826;51.596;5.624;2022-12-18T08:59:59;23.20;;;9.90;;
59042;SDS011;44826;51.596;5.624;2022-12-18T09:02:25;19.90;;;8.50;;
59042;SDS011;44826;51.596;5.624;2022-12-18T09:04:50;20.33;;;9.37;;
59042;SDS011;44826;51.596;5.624;2022-12-18T09:07:15;20.70;;;9.20;;
59042;SDS011;44826;51.596;5.624;2022-12-18T09:09:40;21.97;;;10.53;;
59042;SDS011;44826;51.596;5.624;2022-12-18T09:12:06;21.80;;;9.50;;
59042;SDS011;44826;51.596;5.624;2022-12-18T09:14:31;24.13;;;9.50;;
59042;SDS011;44826;51.596;5.624;2022-12-18T09:16:56;21.23;;;10.03;;
59042;SDS011;44826;51.596;5.624;2022-12-18T09:19:22;20.60;;;10.00;;
59042;SDS011;44826;51.596;5.624;2022-12-18T09:21:47;22.17;;;10.23;;
59042;SDS011;44826;51.596;5.624;2022-12-18T09:24:13;23.57;;;9.10;;
59042;SDS011;44826;51.596;5.624;2022-12-18T09:26:39;19.83;;;9.90;;
59042;SDS011;44826;51.596;5.624;2022-12-18T09:29:04;17.20;;;7.80;;
59042;SDS011;44826;51.596;5.624;2022-12-18T09:31:32;20.73;;;9.43;;
59042;SDS011;44826;51.596;5.624;2022-12-18T09:33:57;22.23;;;9.63;;
59042;SDS011;44826;51.596;5.624;2022-12-18T09:36:22;20.53;;;8.53;;
59042;SDS011;44826;51.596;5.624;2022-12-18T09:38:47;20.13;;;9.23;;
59042;SDS011;44826;51.596;5.624;2022-12-18T09:44:10;21.33;;;9.60;;
59042;SDS011;44826;51.596;5.624;2022-12-18T09:46:44;19.17;;;8.87;;
59042;SDS011;44826;51.596;5.624;2022-12-18T09:49:17;17.73;;;8.70;;
59042;SDS011;44826;51.596;5.624;2022-12-18T09:51:47;22.17;;;10.30;;
59042;SDS011;44826;51.596;5.624;2022-12-18T09:54:25;22.70;;;9.90;;
59042;SDS011;44826;51.596;5.624;2022-12-18T09:56:57;21.90;;;10.23;;
59042;SDS011;44826;51.596;5.624;2022-12-18T09:59:24;19.50;;;9.23;;
59042;SDS011;44826;51.596;5.624;2022-12-18T10:01:54;20.75;;;10.13;;
59042;SDS011;44826;51.596;5.624;2022-12-18T10:04:20;21.97;;;10.20;;
59042;SDS011;44826;51.596;5.624;2022-12-18T10:06:53;21.97;;;10.27;;
59042;SDS011;44826;51.596;5.624;2022-12-18T10:12:32;20.67;;;8.70;;
59042;SDS011;44826;51.596;5.624;2022-12-18T10:15:19;23.37;;;10.43;;
59042;SDS011;44826;51.596;5.624;2022-12-18T10:20:46;21.60;;;9.60;;
59042;SDS011;44826;51.596;5.624;2022-12-18T10:23:39;21.13;;;9.33;;
59042;SDS011;44826;51.596;5.624;2022-12-18T10:26:10;19.97;;;8.57;;
59042;SDS011;44826;51.596;5.624;2022-12-18T10:28:37;18.70;;;8.53;;
59042;SDS011;44826;51.596;5.624;2022-12-18T10:31:05;20.17;;;9.70;;
59042;SDS011;44826;51.596;5.624;2022-12-18T10:33:42;20.07;;;9.40;;
59042;SDS011;44826;51.596;5.624;2022-12-18T10:36:08;20.90;;;9.73;;
59042;SDS011;44826;51.596;5.624;2022-12-18T10:38:33;21.27;;;9.60;;
59042;SDS011;44826;51.596;5.624;2022-12-18T10:41:00;23.83;;;9.70;;
59042;SDS011;44826;51.596;5.624;2022-12-18T10:43:30;19.80;;;9.00;;
59042;SDS011;44826;51.596;5.624;2022-12-18T10:48:27;20.60;;;9.63;;
59042;SDS011;44826;51.596;5.624;2022-12-18T10:50:54;20.93;;;10.30;;
59042;SDS011;44826;51.596;5.624;2022-12-18T10:53:22;24.07;;;10.73;;
59042;SDS011;44826;51.596;5.624;2022-12-18T10:55:50;22.40;;;10.80;;
59042;SDS011;44826;51.596;5.624;2022-12-18T11:03:41;20.53;;;10.13;;
59042;SDS011;44826;51.596;5.624;2022-12-18T11:06:16;20.33;;;10.10;;
59042;SDS011;44826;51.596;5.624;2022-12-18T11:08:44;21.47;;;10.20;;
59042;SDS011;44826;51.596;5.624;2022-12-18T11:11:23;22.20;;;10.17;;
59042;SDS011;44826;51.596;5.624;2022-12-18T11:13:51;21.70;;;10.13;;
59042;SDS011;44826;51.596;5.624;2022-12-18T11:16:20;20.63;;;10.38;;
59042;SDS011;44826;51.596;5.624;2022-12-18T11:18:45;21.80;;;10.40;;
59042;SDS011;44826;51.596;5.624;2022-12-18T11:21:11;19.03;;;9.10;;
59042;SDS011;44826;51.596;5.624;2022-12-18T11:23:44;23.97;;;10.93;;
59042;SDS011;44826;51.596;5.624;2022-12-18T11:26:13;20.90;;;10.63;;
59042;SDS011;44826;51.596;5.624;2022-12-18T11:31:27;22.17;;;10.83;;
59042;SDS011;44826;51.596;5.624;2022-12-18T11:36:43;22.80;;;10.67;;
59042;SDS011;44826;51.596;5.624;2022-12-18T11:39:16;20.40;;;10.40;;
59042;SDS011;44826;51.596;5.624;2022-12-18T11:41:47;24.23;;;10.90;;
59042;SDS011;44826;51.596;5.624;2022-12-18T11:44:53;22.53;;;11.23;;
59042;SDS011;44826;51.596;5.624;2022-12-18T11:50:12;22.43;;;10.60;;
59042;SDS011;44826;51.596;5.624;2022-12-18T11:52:42;21.63;;;10.60;;
59042;SDS011;44826;51.596;5.624;2022-12-18T11:55:54;21.97;;;10.23;;
59042;SDS011;44826;51.596;5.624;2022-12-18T12:01:05;23.98;;;11.80;;
59042;SDS011;44826;51.596;5.624;2022-12-18T12:06:15;22.35;;;10.70;;
59042;SDS011;44826;51.596;5.624;2022-12-18T12:15:10;24.07;;;10.70;;
59042;SDS011;44826;51.596;5.624;2022-12-18T12:20:49;22.03;;;9.67;;
59042;SDS011;44826;51.596;5.624;2022-12-18T12:32:20;20.30;;;10.20;;
59042;SDS011;44826;51.596;5.624;2022-12-18T12:35:14;24.00;;;11.27;;
59042;SDS011;44826;51.596;5.624;2022-12-18T12:41:21;20.10;;;9.63;;
59042;SDS011;44826;51.596;5.624;2022-12-18T12:44:01;22.43;;;11.00;;
59042;SDS011;44826;51.596;5.624;2022-12-18T12:46:31;22.17;;;10.67;;
59042;SDS011;44826;51.596;5.624;2022-12-18T12:49:00;21.23;;;10.53;;
59042;SDS011;44826;51.596;5.624;2022-12-18T12:51:29;22.37;;;10.73;;
59042;SDS011;44826;51.596;5.624;2022-12-18T12:53:59;21.37;;;10.70;;
59042;SDS011;44826;51.596;5.624;2022-12-18T12:56:39;20.57;;;9.90;;
59042;SDS011;44826;51.596;5.624;2022-12-18T13:04:54;24.43;;;11.20;;
59042;SDS011;44826;51.596;5.624;2022-12-18T13:07:32;20.70;;;10.87;;
59042;SDS011;44826;51.596;5.624;2022-12-18T13:10:23;19.03;;;9.80;;
59042;SDS011;44826;51.596;5.624;2022-12-18T13:12:54;23.10;;;11.27;;
59042;SDS011;44826;51.596;5.624;2022-12-18T13:15:22;22.73;;;10.83;;
59042;SDS011;44826;51.596;5.624;2022-12-18T13:17:48;22.57;;;11.57;;
59042;SDS011;44826;51.596;5.624;2022-12-18T13:20:14;22.87;;;11.10;;
59042;SDS011;44826;51.596;5.624;2022-12-18T13:22:42;21.97;;;10.27;;
59042;SDS011;44826;51.596;5.624;2022-12-18T13:38:24;21.23;;;10.05;;
59042;SDS011;44826;51.596;5.624;2022-12-18T13:43:41;21.37;;;11.47;;
59042;SDS011;44826;51.596;5.624;2022-12-18T13:49:02;22.80;;;10.87;;
59042;SDS011;44826;51.596;5.624;2022-12-18T13:51:48;21.53;;;10.53;;
59042;SDS011;44826;51.596;5.624;2022-12-18T13:56:46;20.33;;;10.30;;
59042;SDS011;44826;51.596;5.624;2022-12-18T13:59:14;19.93;;;9.87;;
59042;SDS011;44826;51.596;5.624;2022-12-18T14:01:43;19.63;;;9.83;;
59042;SDS011;44826;51.596;5.624;2022-12-18T14:04:33;20.43;;;10.30;;
59042;SDS011;44826;51.596;5.624;2022-12-18T14:07:07;19.30;;;9.67;;
59042;SDS011;44826;51.596;5.624;2022-12-18T14:09:40;19.57;;;9.90;;
59042;SDS011;44826;51.596;5.624;2022-12-18T14:12:15;41.97;;;20.07;;
59042;SDS011;44826;51.596;5.624;2022-12-18T14:15:00;29.93;;;14.03;;
59042;SDS011;44826;51.596;5.624;2022-12-18T14:17:26;24.93;;;13.10;;
59042;SDS011;44826;51.596;5.624;2022-12-18T14:19:51;23.93;;;12.47;;
59042;SDS011;44826;51.596;5.624;2022-12-18T14:22:18;23.73;;;12.83;;
59042;SDS011;44826;51.596;5.624;2022-12-18T14:24:45;25.23;;;12.53;;
59042;SDS011;44826;51.596;5.624;2022-12-18T14:27:22;23.00;;;11.73;;
59042;SDS011;44826;51.596;5.624;2022-12-18T14:29:49;19.90;;;10.87;;
59042;SDS011;44826;51.596;5.624;2022-12-18T14:32:16;22.57;;;12.27;;
59042;SDS011;44826;51.596;5.624;2022-12-18T14:34:43;24.53;;;12.80;;
59042;SDS011;44826;51.596;5.624;2022-12-18T14:37:10;20.33;;;11.30;;
59042;SDS011;44826;51.596;5.624;2022-12-18T14:39:37;24.13;;;12.90;;
59042;SDS011;44826;51.596;5.624;2022-12-18T14:42:03;22.13;;;11.87;;
59042;SDS011;44826;51.596;5.624;2022-12-18T14:44:28;21.87;;;11.47;;
59042;SDS011;44826;51.596;5.624;2022-12-18T14:46:54;23.17;;;11.47;;
59042;SDS011;44826;51.596;5.624;2022-12-18T14:51:49;21.77;;;11.27;;
59042;SDS011;44826;51.596;5.624;2022-12-18T14:54:24;20.77;;;11.03;;
59042;SDS011;44826;51.596;5.624;2022-12-18T14:57:05;21.10;;;10.77;;
59042;SDS011;44826;51.596;5.624;2022-12-18T14:59:43;24.65;;;11.25;;
59042;SDS011;44826;51.596;5.624;2022-12-18T15:05:00;21.03;;;10.33;;
59042;SDS011;44826;51.596;5.624;2022-12-18T15:07:38;18.63;;;9.97;;
59042;SDS011;44826;51.596;5.624;2022-12-18T15:10:30;19.07;;;10.17;;
59042;SDS011;44826;51.596;5.624;2022-12-18T15:20:28;20.10;;;12.40;;
59042;SDS011;44826;51.596;5.624;2022-12-18T15:22:57;22.23;;;11.93;;
59042;SDS011;44826;51.596;5.624;2022-12-18T15:25:31;23.30;;;11.73;;
59042;SDS011;44826;51.596;5.624;2022-12-18T15:28:01;25.03;;;13.20;;
59042;SDS011;44826;51.596;5.624;2022-12-18T15:30:27;24.40;;;12.00;;
59042;SDS011;44826;51.596;5.624;2022-12-18T15:32:52;19.17;;;10.43;;
59042;SDS011;44826;51.596;5.624;2022-12-18T15:35:37;22.17;;;11.60;;
59042;SDS011;44826;51.596;5.624;2022-12-18T15:38:03;20.27;;;11.03;;
59042;SDS011;44826;51.596;5.624;2022-12-18T15:40:28;18.30;;;9.13;;
59042;SDS011;44826;51.596;5.624;2022-12-18T15:42:53;19.17;;;9.37;;
59042;SDS011;44826;51.596;5.624;2022-12-18T15:45:39;19.17;;;9.33;;
59042;SDS011;44826;51.596;5.624;2022-12-18T15:48:10;18.67;;;9.27;;
59042;SDS011;44826;51.596;5.624;2022-12-18T15:50:44;20.63;;;9.70;;
59042;SDS011;44826;51.596;5.624;2022-12-18T15:53:10;20.73;;;9.27;;
59042;SDS011;44826;51.596;5.624;2022-12-18T15:55:35;16.37;;;9.10;;
59042;SDS011;44826;51.596;5.624;2022-12-18T15:58:19;19.27;;;9.03;;
59042;SDS011;44826;51.596;5.624;2022-12-18T16:00:45;18.77;;;10.27;;
59042;SDS011;44826;51.596;5.624;2022-12-18T16:03:11;20.33;;;10.63;;
59042;SDS011;44826;51.596;5.624;2022-12-18T16:05:36;19.80;;;10.40;;
59042;SDS011;44826;51.596;5.624;2022-12-18T16:08:01;22.50;;;11.63;;
59042;SDS011;44826;51.596;5.624;2022-12-18T16:10:27;20.50;;;10.80;;
59042;SDS011;44826;51.596;5.624;2022-12-18T16:12:52;21.80;;;11.87;;
59042;SDS011;44826;51.596;5.624;2022-12-18T16:15:18;20.30;;;10.80;;
59042;SDS011;44826;51.596;5.624;2022-12-18T16:17:43;22.93;;;11.43;;
59042;SDS011;44826;51.596;5.624;2022-12-18T16:20:13;23.60;;;10.60;;
59042;SDS011;44826;51.596;5.624;2022-12-18T16:22:40;19.67;;;10.03;;
59042;SDS011;44826;51.596;5.624;2022-12-18T16:25:08;19.87;;;10.17;;
59042;SDS011;44826;51.596;5.624;2022-12-18T16:27:41;22.13;;;11.30;;